Time;durP1;ratioP1;P1;durP2;ratioP2;P2;SDS_P1;SDS_P2;PMS_P1;PMS_P2;Temp;Humidity;BMP_temperature;BMP_pressure;BME280_temperature;BME280_humidity;BME280_pressure;Samples;Min_cycle;Max_cycle;Signal;HPM_P1;HPM_P2
2023/01/10 00:00:36;;;;;;;16.88;10.68;;;3.30;99.90;;;;;;5076972;28;20462;-91
2023/01/10 00:03:09;;;;;;;20.63;9.93;;;3.30;99.90;;;;;;4975214;28;20039;-91
2023/01/10 00:05:36;;;;;;;23.02;10.38;;;3.30;99.90;;;;;;5077294;28;20489;-92
2023/01/10 00:08:03;;;;;;;22.77;11.45;;;3.20;99.90;;;;;;5060469;28;20482;-91
2023/01/10 00:10:30;;;;;;;26.00;12.10;;;3.30;99.90;;;;;;5042616;28;20035;-91
2023/01/10 00:15:39;;;;;;;21.52;11.23;;;3.30;99.90;;;;;;4972135;28;20027;-91
2023/01/10 00:18:11;;;;;;;24.90;12.13;;;3.30;99.90;;;;;;4955549;28;20023;-90
2023/01/10 00:20:37;;;;;;;19.65;11.48;;;3.30;99.90;;;;;;4956352;28;20027;-91
2023/01/10 00:23:03;;;;;;;27.02;11.15;;;3.30;99.90;;;;;;5039915;28;20041;-91
2023/01/10 00:25:29;;;;;;;25.27;11.73;;;3.30;99.90;;;;;;5039741;28;20386;-91
2023/01/10 00:28:09;;;;;;;20.17;11.35;;;3.30;99.90;;;;;;4955339;28;20031;-91
2023/01/10 00:30:37;;;;;;;25.58;13.10;;;3.30;99.90;;;;;;5039461;28;20035;-91
2023/01/10 00:33:03;;;;;;;21.63;12.10;;;3.30;99.90;;;;;;4955292;29;20096;-91
2023/01/10 00:35:29;;;;;;;24.63;12.50;;;3.30;99.90;;;;;;4955313;29;20554;-90
2023/01/10 00:38:00;;;;;;;25.13;13.23;;;3.30;99.90;;;;;;4971076;28;20566;-91
2023/01/10 00:40:26;;;;;;;26.08;13.07;;;3.30;99.90;;;;;;4971673;28;20031;-91
2023/01/10 00:45:36;;;;;;;31.05;13.27;;;3.30;99.90;;;;;;4956278;28;20372;-91
2023/01/10 00:48:01;;;;;;;29.25;14.27;;;3.30;99.90;;;;;;4955398;29;20040;-91
2023/01/10 00:50:27;;;;;;;29.98;13.68;;;3.30;99.90;;;;;;5039489;28;20034;-91
2023/01/10 00:52:53;;;;;;;28.33;13.68;;;3.30;99.90;;;;;;4956067;28;20027;-92
2023/01/10 00:55:18;;;;;;;29.40;14.93;;;3.30;99.90;;;;;;5039502;28;20058;-92
2023/01/10 00:57:44;;;;;;;33.97;14.52;;;3.30;99.90;;;;;;5040193;28;20027;-92
2023/01/10 01:00:11;;;;;;;25.48;13.70;;;3.30;99.90;;;;;;5040193;28;20024;-91
2023/01/10 01:02:36;;;;;;;25.13;13.77;;;3.30;99.90;;;;;;4956335;29;20386;-91
2023/01/10 01:05:03;;;;;;;27.80;14.02;;;3.30;99.90;;;;;;5039335;28;20070;-91
2023/01/10 01:07:29;;;;;;;23.38;12.43;;;3.30;99.90;;;;;;4955789;29;20070;-90
2023/01/10 01:12:38;;;;;;;43.47;14.90;;;3.30;99.90;;;;;;4971616;28;20035;-91
2023/01/10 01:15:04;;;;;;;26.83;14.32;;;3.30;99.90;;;;;;5040372;28;20444;-91
2023/01/10 01:17:30;;;;;;;27.92;13.02;;;3.30;99.90;;;;;;4955965;28;20110;-90
2023/01/10 01:19:56;;;;;;;32.38;13.43;;;3.30;99.90;;;;;;5039605;28;20120;-92
2023/01/10 01:22:21;;;;;;;23.85;13.55;;;3.30;99.90;;;;;;4956132;28;20031;-92
2023/01/10 01:24:47;;;;;;;25.00;13.30;;;3.30;99.90;;;;;;4970001;28;20027;-91
2023/01/10 01:27:13;;;;;;;30.85;14.15;;;3.30;99.90;;;;;;5038335;28;20133;-91
2023/01/10 01:29:39;;;;;;;26.75;13.13;;;3.30;99.90;;;;;;4954154;29;20395;-91
2023/01/10 01:32:04;;;;;;;22.38;11.65;;;3.30;99.90;;;;;;5037935;28;20729;-92
2023/01/10 01:34:30;;;;;;;22.23;12.98;;;3.30;99.90;;;;;;5037701;28;20058;-91
2023/01/10 01:36:57;;;;;;;20.15;10.95;;;3.30;99.90;;;;;;5037648;28;20050;-91
2023/01/10 01:39:23;;;;;;;23.83;13.40;;;3.20;99.90;;;;;;5037834;28;20023;-92
2023/01/10 01:41:57;;;;;;;32.35;15.15;;;3.20;99.90;;;;;;4969492;28;20101;-91
2023/01/10 01:44:28;;;;;;;24.90;14.65;;;3.20;99.90;;;;;;5037799;28;20070;-91
2023/01/10 01:47:07;;;;;;;21.08;10.98;;;3.30;99.90;;;;;;5037698;28;20035;-90
2023/01/10 01:49:39;;;;;;;25.63;13.05;;;3.20;99.90;;;;;;5037376;28;20046;-91
2023/01/10 01:52:10;;;;;;;27.90;13.43;;;3.30;99.90;;;;;;4969530;28;20047;-92
2023/01/10 01:54:36;;;;;;;;;;;3.30;99.90;;;;;;4953845;28;20041;-91
2023/01/10 01:57:11;;;;;;;31.65;15.13;;;3.30;99.90;;;;;;4969685;28;19950;-93
2023/01/10 01:59:43;;;;;;;29.65;15.68;;;3.20;99.90;;;;;;4953716;28;20035;-92
2023/01/10 02:02:32;;;;;;;36.15;17.30;;;3.20;99.90;;;;;;4953856;29;20073;-91
2023/01/10 02:05:11;;;;;;;40.42;16.55;;;3.20;99.90;;;;;;4954857;28;20034;-91
2023/01/10 02:07:40;;;;;;;31.60;16.52;;;3.20;99.90;;;;;;4955072;28;20027;-92
2023/01/10 02:10:11;;;;;;;33.92;17.95;;;3.20;99.90;;;;;;5038035;28;20042;-92
2023/01/10 02:12:38;;;;;;;42.42;19.30;;;3.20;99.90;;;;;;4969695;28;20130;-91
2023/01/10 02:15:04;;;;;;;39.35;19.25;;;3.20;99.90;;;;;;4953283;29;20134;-91
2023/01/10 02:17:30;;;;;;;36.42;19.10;;;3.20;99.90;;;;;;4953685;28;20027;-91
2023/01/10 02:20:04;;;;;;;38.28;19.95;;;3.20;99.90;;;;;;4954157;28;20030;-91
2023/01/10 02:23:12;;;;;;;34.83;18.45;;;3.20;99.90;;;;;;4937758;29;20038;-92
2023/01/10 02:26:06;;;;;;;38.40;19.30;;;3.20;99.90;;;;;;4953580;29;20081;-91
2023/01/10 02:28:50;;;;;;;36.28;17.52;;;3.20;99.90;;;;;;4969650;28;20041;-91
2023/01/10 02:31:27;;;;;;;30.50;15.48;;;3.20;99.90;;;;;;4969620;28;20035;-90
2023/01/10 02:34:10;;;;;;;32.00;15.57;;;3.10;99.90;;;;;;4969844;28;20077;-91
2023/01/10 02:37:10;;;;;;;28.40;14.50;;;3.10;99.90;;;;;;5054794;28;20054;-91
2023/01/10 02:40:06;;;;;;;23.48;10.82;;;3.10;99.90;;;;;;4953885;29;20176;-91
2023/01/10 02:42:38;;;;;;;21.48;10.88;;;3.00;99.90;;;;;;4954049;29;20537;-91
2023/01/10 02:45:13;;;;;;;20.80;11.55;;;3.00;99.90;;;;;;4953789;29;20214;-92
2023/01/10 02:47:40;;;;;;;27.10;11.18;;;2.90;99.90;;;;;;4955373;28;20039;-91
2023/01/10 02:50:30;;;;;;;23.23;10.73;;;2.90;99.90;;;;;;4953893;28;20032;-91
2023/01/10 02:53:03;;;;;;;26.98;9.82;;;2.80;99.90;;;;;;4954188;28;20122;-91
2023/01/10 02:55:57;;;;;;;27.70;10.73;;;2.80;99.90;;;;;;5038401;28;20483;-92
2023/01/10 02:58:26;;;;;;;22.25;8.88;;;2.80;99.90;;;;;;5054418;28;20122;-90
2023/01/10 03:01:05;;;;;;;22.08;8.85;;;2.80;99.90;;;;;;4969621;28;20038;-91
2023/01/10 03:03:57;;;;;;;18.90;8.70;;;2.70;99.90;;;;;;4953155;28;20023;-91
2023/01/10 03:06:52;;;;;;;23.13;8.52;;;2.70;99.90;;;;;;5036870;28;20027;-90
2023/01/10 03:09:34;;;;;;;20.40;8.80;;;2.70;99.90;;;;;;5054132;28;20031;-90
2023/01/10 03:12:03;;;;;;;;;;;2.70;99.90;;;;;;4953779;28;20071;-90
2023/01/10 03:14:31;;;;;;;14.35;7.00;;;2.70;99.90;;;;;;4969356;28;19914;-91
2023/01/10 03:17:07;;;;;;;22.45;7.85;;;2.70;99.90;;;;;;5036999;28;20031;-91
2023/01/10 03:19:47;;;;;;;18.70;7.28;;;2.60;99.90;;;;;;4953134;29;20368;-91
2023/01/10 03:22:14;;;;;;;25.73;8.43;;;2.60;99.90;;;;;;4953202;29;20429;-91
2023/01/10 03:24:43;;;;;;;41.05;17.13;;;2.60;99.90;;;;;;5037892;28;20031;-90
2023/01/10 03:27:29;;;;;;;23.05;9.82;;;2.60;99.90;;;;;;4954359;28;20055;-91
2023/01/10 03:30:04;;;;;;;18.40;7.90;;;2.60;99.90;;;;;;4953869;28;20047;-91
2023/01/10 03:32:31;;;;;;;27.88;10.15;;;2.60;99.90;;;;;;4956098;29;20075;-92
2023/01/10 03:35:00;;;;;;;18.38;7.47;;;2.50;99.90;;;;;;4972161;28;20126;-91
2023/01/10 03:37:28;;;;;;;23.70;9.80;;;2.50;99.90;;;;;;4956220;28;20034;-91
2023/01/10 03:40:21;;;;;;;26.13;9.85;;;2.50;99.90;;;;;;4972456;28;20036;-90
2023/01/10 03:46:12;;;;;;;27.75;10.35;;;2.50;99.90;;;;;;4957388;28;20035;-92
2023/01/10 03:48:40;;;;;;;;;;;2.50;99.90;;;;;;4956577;29;20043;-91
2023/01/10 03:51:07;;;;;;;21.35;8.43;;;2.50;99.90;;;;;;5057459;28;19932;-91
2023/01/10 03:53:36;;;;;;;25.65;8.20;;;2.40;99.90;;;;;;4955976;29;20028;-92
2023/01/10 03:56:01;;;;;;;20.48;8.77;;;2.40;99.90;;;;;;4956339;28;20181;-91
2023/01/10 03:58:28;;;;;;;17.67;8.32;;;2.40;99.90;;;;;;5040748;28;20500;-91
2023/01/10 04:00:54;;;;;;;22.65;10.02;;;2.30;99.90;;;;;;5040533;28;20485;-90
2023/01/10 04:03:19;;;;;;;23.20;9.07;;;2.20;99.90;;;;;;4972067;28;20028;-90
2023/01/10 04:05:45;;;;;;;23.75;9.30;;;2.00;99.90;;;;;;5040591;28;20130;-90
2023/01/10 04:08:11;;;;;;;28.83;9.15;;;1.90;99.90;;;;;;5040192;28;20046;-91
2023/01/10 04:10:36;;;;;;;27.13;9.80;;;1.90;99.90;;;;;;4956310;28;20078;-91
2023/01/10 04:13:03;;;;;;;32.97;12.02;;;2.00;99.90;;;;;;5040052;28;20118;-91
2023/01/10 04:15:29;;;;;;;33.78;13.18;;;2.10;99.90;;;;;;4955719;29;20540;-90
2023/01/10 04:17:56;;;;;;;30.70;11.82;;;2.10;99.90;;;;;;4955280;28;20067;-90
2023/01/10 04:20:25;;;;;;;29.83;13.05;;;2.20;99.90;;;;;;5039976;28;20038;-91
2023/01/10 04:22:53;;;;;;;42.35;12.77;;;2.30;99.90;;;;;;4955500;28;20042;-90
2023/01/10 04:25:19;;;;;;;29.40;13.38;;;2.40;99.90;;;;;;4955900;29;20410;-90
2023/01/10 04:27:47;;;;;;;33.15;12.43;;;2.40;99.90;;;;;;4955331;29;20041;-91
2023/01/10 04:30:13;;;;;;;37.00;13.13;;;2.40;99.90;;;;;;4955236;29;20042;-90
2023/01/10 04:32:38;;;;;;;32.45;11.88;;;2.40;99.90;;;;;;5039850;28;20047;-91
2023/01/10 04:35:04;;;;;;;29.23;12.10;;;2.40;99.90;;;;;;5039636;28;20027;-92
2023/01/10 04:37:30;;;;;;;30.70;10.05;;;2.50;99.90;;;;;;4955052;29;20045;-90
2023/01/10 04:39:56;;;;;;;27.20;10.85;;;2.50;99.90;;;;;;5038394;28;20077;-90
2023/01/10 04:42:22;;;;;;;29.83;10.38;;;2.50;99.90;;;;;;5039537;28;20441;-90
2023/01/10 04:44:48;;;;;;;32.60;10.75;;;2.40;99.90;;;;;;5039232;28;20031;-89
2023/01/10 04:47:13;;;;;;;39.28;10.75;;;2.50;99.90;;;;;;5038871;28;20035;-92
2023/01/10 04:49:39;;;;;;;37.92;9.82;;;2.50;99.90;;;;;;5039321;28;20035;-90
2023/01/10 04:52:04;;;;;;;33.88;11.02;;;2.50;99.90;;;;;;5038945;28;20035;-90
2023/01/10 04:54:30;;;;;;;37.72;9.95;;;2.60;99.90;;;;;;5038723;28;20041;-90
2023/01/10 04:56:56;;;;;;;28.00;11.15;;;2.50;99.90;;;;;;5038819;28;20055;-91
2023/01/10 04:59:21;;;;;;;29.80;11.23;;;2.50;99.90;;;;;;5039100;28;20031;-91
2023/01/10 05:01:47;;;;;;;40.45;10.63;;;2.50;99.90;;;;;;5039249;28;20031;-91
2023/01/10 05:04:13;;;;;;;31.10;11.15;;;2.50;99.90;;;;;;5038655;28;20471;-90
2023/01/10 05:06:41;;;;;;;21.38;9.60;;;2.60;99.90;;;;;;5038760;28;20039;-90
2023/01/10 05:09:07;;;;;;;26.67;9.48;;;2.60;99.90;;;;;;4954446;29;20071;-90
2023/01/10 05:11:33;;;;;;;35.00;10.32;;;2.50;99.90;;;;;;4954284;29;20063;-90
2023/01/10 05:13:59;;;;;;;24.85;9.80;;;2.60;99.90;;;;;;5039120;28;20042;-90
2023/01/10 05:16:25;;;;;;;26.92;10.48;;;2.60;99.90;;;;;;5038726;28;20031;-90
2023/01/10 05:18:50;;;;;;;41.10;11.05;;;2.60;99.90;;;;;;5038548;28;20031;-91
2023/01/10 05:21:16;;;;;;;30.52;10.18;;;2.60;99.90;;;;;;5039263;28;20081;-90
2023/01/10 05:23:42;;;;;;;24.13;9.02;;;2.60;99.90;;;;;;5038691;28;20035;-91
2023/01/10 05:26:12;;;;;;;24.33;8.30;;;2.60;99.90;;;;;;5038443;28;20495;-90
2023/01/10 05:28:39;;;;;;;28.48;10.07;;;2.60;99.90;;;;;;4954036;28;20038;-90
2023/01/10 05:31:06;;;;;;;35.75;10.32;;;2.60;99.90;;;;;;4954013;29;20050;-90
2023/01/10 05:33:32;;;;;;;33.42;11.00;;;2.60;99.90;;;;;;4953993;29;20114;-90
2023/01/10 05:36:00;;;;;;;33.35;9.52;;;2.60;99.90;;;;;;5038320;28;20070;-91
2023/01/10 05:38:28;;;;;;;30.55;9.30;;;2.60;99.90;;;;;;5038530;28;20015;-90
2023/01/10 05:40:56;;;;;;;31.35;10.85;;;2.60;99.90;;;;;;4954170;28;20027;-89
2023/01/10 05:43:22;;;;;;;28.33;9.25;;;2.60;99.90;;;;;;5038259;28;20097;-90
2023/01/10 05:45:48;;;;;;;66.13;24.15;;;2.60;99.90;;;;;;4954326;29;20149;-89
2023/01/10 05:48:14;;;;;;;59.58;25.48;;;2.60;99.90;;;;;;5038324;28;20050;-89
2023/01/10 05:50:39;;;;;;;44.45;14.73;;;2.70;99.90;;;;;;5036832;28;20027;-89
2023/01/10 05:53:06;;;;;;;32.10;10.75;;;2.60;99.90;;;;;;5038769;28;20045;-91
2023/01/10 05:55:32;;;;;;;29.70;9.88;;;2.60;99.90;;;;;;5037803;28;20093;-90
2023/01/10 05:57:58;;;;;;;27.77;9.75;;;2.60;99.90;;;;;;4953828;28;20085;-89
2023/01/10 06:00:24;;;;;;;30.17;11.20;;;2.60;99.90;;;;;;5037650;28;20031;-90
2023/01/10 06:03:15;;;;;;;33.75;10.85;;;2.60;99.90;;;;;;4953782;28;20030;-90
2023/01/10 06:05:41;;;;;;;38.57;10.53;;;2.60;99.90;;;;;;4953437;28;20059;-90
2023/01/10 06:08:06;;;;;;;25.25;9.75;;;2.60;99.90;;;;;;4953276;29;20046;-91
2023/01/10 06:10:32;;;;;;;28.30;8.75;;;2.60;99.90;;;;;;5037478;28;20061;-89
2023/01/10 06:12:58;;;;;;;35.35;9.18;;;2.60;99.90;;;;;;5036960;28;20035;-90
2023/01/10 06:15:23;;;;;;;24.33;9.77;;;2.60;99.90;;;;;;5037446;28;20471;-90
2023/01/10 06:17:49;;;;;;;26.98;8.98;;;2.60;99.90;;;;;;5037113;28;20032;-91
2023/01/10 06:20:15;;;;;;;35.53;9.00;;;2.60;99.90;;;;;;5036984;28;20088;-91
2023/01/10 06:22:42;;;;;;;26.15;8.57;;;2.60;99.90;;;;;;4953488;29;20031;-91
2023/01/10 06:25:12;;;;;;;29.45;8.82;;;2.50;99.90;;;;;;4953091;28;20045;-90
2023/01/10 06:27:42;;;;;;;31.75;8.00;;;2.50;99.90;;;;;;5037066;28;20046;-90
2023/01/10 06:30:10;;;;;;;31.42;9.00;;;2.60;99.90;;;;;;4953651;29;20031;-90
2023/01/10 06:32:36;;;;;;;21.33;7.70;;;2.60;99.90;;;;;;4952979;29;20042;-88
2023/01/10 06:35:03;;;;;;;30.40;8.60;;;2.60;99.90;;;;;;5037008;28;20078;-89
2023/01/10 06:37:28;;;;;;;20.35;8.00;;;2.60;99.90;;;;;;4953000;28;20089;-90
2023/01/10 06:39:54;;;;;;;21.98;8.52;;;2.60;99.90;;;;;;5036748;28;20035;-90
2023/01/10 06:42:20;;;;;;;24.00;7.88;;;2.60;99.90;;;;;;5036912;28;20031;-89
2023/01/10 06:44:45;;;;;;;28.67;8.55;;;2.60;99.90;;;;;;5037154;28;20085;-89
2023/01/10 06:47:11;;;;;;;22.67;8.13;;;2.60;99.90;;;;;;5036884;28;20067;-88
2023/01/10 06:49:37;;;;;;;34.70;9.65;;;2.60;99.90;;;;;;4968805;28;20031;-90
2023/01/10 06:52:03;;;;;;;22.77;7.05;;;2.60;99.90;;;;;;5036833;28;20035;-89
2023/01/10 06:54:28;;;;;;;23.23;7.75;;;2.50;99.90;;;;;;4952649;29;20023;-89
2023/01/10 06:56:54;;;;;;;28.95;9.20;;;2.50;99.90;;;;;;5036588;28;20032;-89
2023/01/10 06:59:19;;;;;;;29.30;7.72;;;2.50;99.90;;;;;;5036382;28;20043;-89
2023/01/10 07:01:45;;;;;;;37.85;8.75;;;2.40;99.90;;;;;;5036020;28;20035;-89
2023/01/10 07:04:11;;;;;;;42.30;10.95;;;2.40;99.90;;;;;;5036703;28;20036;-89
2023/01/10 07:06:37;;;;;;;72.25;28.02;;;2.40;99.90;;;;;;5036241;28;20023;-90
2023/01/10 07:09:04;;;;;;;25.20;9.73;;;2.40;99.90;;;;;;4952730;28;20509;-89
2023/01/10 07:11:30;;;;;;;37.22;10.82;;;2.40;99.90;;;;;;4968185;28;20079;-89
2023/01/10 07:13:56;;;;;;;32.00;10.90;;;2.40;99.90;;;;;;4952256;28;20118;-89
2023/01/10 07:16:22;;;;;;;21.42;8.77;;;2.40;99.90;;;;;;5036730;28;20480;-89
2023/01/10 07:18:48;;;;;;;26.45;9.68;;;2.50;99.90;;;;;;5036886;28;20063;-91
2023/01/10 07:21:15;;;;;;;42.97;10.10;;;2.60;99.90;;;;;;5036703;28;20078;-91
2023/01/10 07:23:42;;;;;;;20.60;9.30;;;2.50;99.90;;;;;;4953025;28;20102;-89
2023/01/10 07:26:10;;;;;;;33.70;13.75;;;2.50;99.90;;;;;;5036399;28;20042;-91
2023/01/10 07:28:36;;;;;;;49.58;11.30;;;2.50;99.90;;;;;;4952315;29;20035;-90
2023/01/10 07:31:24;;;;;;;34.35;12.50;;;2.50;99.90;;;;;;4952628;28;20027;-90
2023/01/10 07:33:51;;;;;;;38.70;13.40;;;2.60;99.90;;;;;;5036247;28;20035;-91
2023/01/10 07:36:17;;;;;;;46.47;14.30;;;2.60;99.90;;;;;;4952208;28;20028;-91
2023/01/10 07:38:43;;;;;;;49.45;14.65;;;2.60;99.90;;;;;;4952365;29;20024;-90
2023/01/10 07:41:09;;;;;;;37.47;13.65;;;2.60;99.90;;;;;;4968323;28;20501;-90
2023/01/10 07:43:35;;;;;;;40.85;13.82;;;2.60;99.90;;;;;;5036867;28;20394;-90
2023/01/10 07:46:03;;;;;;;46.88;14.25;;;2.60;99.90;;;;;;5036468;28;20032;-90
2023/01/10 07:48:29;;;;;;;40.55;13.52;;;2.60;99.90;;;;;;4952335;29;20035;-91
2023/01/10 07:50:56;;;;;;;43.25;13.95;;;2.60;99.90;;;;;;4968514;28;20146;-90
2023/01/10 07:53:22;;;;;;;45.80;15.30;;;2.70;99.90;;;;;;4952719;29;20039;-90
2023/01/10 07:55:48;;;;;;;59.83;18.05;;;2.70;99.90;;;;;;5036552;28;20118;-90
2023/01/10 07:58:13;;;;;;;40.33;13.93;;;2.70;99.90;;;;;;5035944;28;20035;-91
2023/01/10 08:00:39;;;;;;;66.45;18.40;;;2.70;99.90;;;;;;5036328;28;20032;-90
2023/01/10 08:03:05;;;;;;;42.05;15.27;;;2.70;99.90;;;;;;5037347;28;20038;-90
2023/01/10 08:05:31;;;;;;;53.83;14.90;;;2.70;99.90;;;;;;5036316;28;20041;-90
2023/01/10 08:08:10;;;;;;;45.72;14.88;;;2.70;99.90;;;;;;4951956;28;20035;-90
2023/01/10 08:10:37;;;;;;;37.53;14.13;;;2.70;99.90;;;;;;4951799;29;20490;-90
2023/01/10 08:13:03;;;;;;;35.78;12.82;;;2.80;99.90;;;;;;5036156;28;20036;-91
2023/01/10 08:15:29;;;;;;;39.35;14.13;;;2.90;99.90;;;;;;4938878;29;20023;-90
2023/01/10 08:17:59;;;;;;;41.75;13.35;;;2.90;99.90;;;;;;4955297;29;20027;-90
2023/01/10 08:20:25;;;;;;;33.83;12.20;;;2.90;99.90;;;;;;4955122;29;20505;-90
2023/01/10 08:22:51;;;;;;;41.80;11.68;;;2.80;99.90;;;;;;4955251;28;20283;-91
2023/01/10 08:25:17;;;;;;;39.05;11.15;;;2.80;99.90;;;;;;5042224;28;20046;-90
2023/01/10 08:27:43;;;;;;;37.40;10.85;;;2.80;99.90;;;;;;5038932;28;20057;-90
2023/01/10 08:30:09;;;;;;;44.38;13.93;;;2.80;99.90;;;;;;5039837;28;20037;-90
2023/01/10 08:32:35;;;;;;;43.38;11.10;;;2.90;99.90;;;;;;4954841;29;20066;-91
2023/01/10 08:35:00;;;;;;;38.17;10.05;;;3.00;99.90;;;;;;5040078;28;20032;-90
2023/01/10 08:37:27;;;;;;;29.05;9.60;;;3.10;99.90;;;;;;5039278;28;20032;-90
2023/01/10 08:39:53;;;;;;;30.50;9.60;;;3.00;99.90;;;;;;5039233;28;20039;-89
2023/01/10 08:42:18;;;;;;;36.53;8.10;;;2.90;99.90;;;;;;5039145;28;20032;-90
2023/01/10 08:44:44;;;;;;;35.20;8.38;;;2.90;99.90;;;;;;5039240;28;20074;-90
2023/01/10 08:47:10;;;;;;;36.05;8.52;;;2.90;99.90;;;;;;5038805;28;20130;-90
2023/01/10 08:49:35;;;;;;;31.90;8.57;;;3.00;99.90;;;;;;5038988;28;20035;-91
2023/01/10 08:52:01;;;;;;;26.67;8.55;;;3.00;99.90;;;;;;5038824;28;20055;-91
2023/01/10 08:54:27;;;;;;;38.35;8.55;;;3.10;99.90;;;;;;5039033;28;20062;-89
2023/01/10 08:56:53;;;;;;;42.60;7.40;;;3.20;99.90;;;;;;5039223;28;20058;-90
2023/01/10 08:59:18;;;;;;;33.50;6.38;;;3.40;99.90;;;;;;5038800;28;20070;-90
2023/01/10 09:01:44;;;;;;;29.88;7.38;;;3.40;99.90;;;;;;5039326;28;20430;-90
2023/01/10 09:04:10;;;;;;;25.08;5.47;;;3.50;99.90;;;;;;4954965;28;20078;-90
2023/01/10 09:06:36;;;;;;;20.67;5.45;;;3.30;99.90;;;;;;5039178;28;20410;-90
2023/01/10 09:09:03;;;;;;;26.27;5.57;;;3.30;99.90;;;;;;4954609;28;20032;-89
2023/01/10 09:11:28;;;;;;;22.95;5.68;;;3.40;99.90;;;;;;4954201;28;20050;-90
2023/01/10 09:13:54;;;;;;;22.92;5.95;;;3.30;99.90;;;;;;5038504;28;20035;-90
2023/01/10 09:16:20;;;;;;;21.38;6.53;;;3.30;99.90;;;;;;5038614;28;20034;-90
2023/01/10 09:18:46;;;;;;;33.20;5.90;;;3.30;99.90;;;;;;5038839;28;20034;-90
2023/01/10 09:21:11;;;;;;;24.77;5.95;;;3.30;99.90;;;;;;5038461;28;20059;-89
2023/01/10 09:23:38;;;;;;;24.27;5.05;;;3.50;99.90;;;;;;5038516;28;20118;-89
2023/01/10 09:26:05;;;;;;;25.70;4.90;;;3.50;99.90;;;;;;5037960;28;20101;-90
2023/01/10 09:28:30;;;;;;;20.30;5.10;;;3.70;99.90;;;;;;4954150;29;20034;-89
2023/01/10 09:30:56;;;;;;;17.55;4.38;;;3.70;99.90;;;;;;5038522;28;20019;-90
2023/01/10 09:33:22;;;;;;;19.08;5.13;;;3.70;99.90;;;;;;5038173;28;20039;-89
2023/01/10 09:35:48;;;;;;;23.20;5.32;;;3.70;99.90;;;;;;5038187;28;20133;-90
2023/01/10 09:38:17;;;;;;;17.80;4.38;;;3.80;99.90;;;;;;5038395;28;20233;-91
2023/01/10 09:41:21;;;;;;;22.20;5.20;;;3.90;99.90;;;;;;4953900;29;20031;-90
2023/01/10 09:44:14;;;;;;;20.00;5.07;;;3.80;99.90;;;;;;4970159;28;20085;-89
2023/01/10 09:47:01;;;;;;;15.88;4.60;;;3.90;99.90;;;;;;4969966;28;20092;-90
2023/01/10 09:49:49;;;;;;;13.77;4.28;;;4.00;99.90;;;;;;4970311;28;20036;-90
2023/01/10 09:52:31;;;;;;;29.63;4.90;;;4.00;99.90;;;;;;4954274;29;20031;-89
2023/01/10 09:54:58;;;;;;;;;;;3.90;99.90;;;;;;4954093;29;20031;-88
2023/01/10 09:57:24;;;;;;;24.83;5.53;;;3.90;99.90;;;;;;5054285;28;19914;-90
2023/01/10 09:59:52;;;;;;;34.70;5.38;;;3.80;99.90;;;;;;4953754;28;20042;-89
2023/01/10 10:02:25;;;;;;;16.27;5.55;;;3.80;99.90;;;;;;4953457;29;20031;-90
2023/01/10 10:05:12;;;;;;;20.63;4.55;;;3.90;99.90;;;;;;4969603;28;20039;-90
2023/01/10 10:07:38;;;;;;;17.95;4.65;;;3.80;99.90;;;;;;4953478;28;20089;-90
2023/01/10 10:10:15;;;;;;;18.38;4.53;;;3.80;99.90;;;;;;4953241;29;20061;-90
2023/01/10 10:12:52;;;;;;;20.13;5.13;;;3.80;99.90;;;;;;4953307;29;20065;-89
2023/01/10 10:15:48;;;;;;;22.52;4.50;;;3.80;99.90;;;;;;4969581;28;20118;-89
2023/01/10 10:18:43;;;;;;;27.38;6.80;;;3.70;99.90;;;;;;4969192;28;20128;-90
2023/01/10 10:21:20;;;;;;;20.65;5.15;;;3.70;99.90;;;;;;4971735;28;20039;-89
2023/01/10 10:24:04;;;;;;;30.60;5.90;;;3.80;99.90;;;;;;4969308;28;20041;-89
2023/01/10 10:26:56;;;;;;;28.80;6.53;;;3.70;99.90;;;;;;4968933;28;20042;-90
2023/01/10 10:29:40;;;;;;;30.05;7.40;;;3.60;99.90;;;;;;4953215;29;20031;-90
2023/01/10 10:32:45;;;;;;;32.28;6.47;;;3.60;99.90;;;;;;4953288;29;20038;-90
2023/01/10 10:35:26;;;;;;;18.70;5.57;;;3.60;99.90;;;;;;4967493;28;20109;-90
2023/01/10 10:37:54;;;;;;;22.00;4.97;;;3.70;99.90;;;;;;4952683;29;20039;-90
2023/01/10 10:40:31;;;;;;;24.05;5.55;;;3.70;99.90;;;;;;4969090;28;20089;-90
2023/01/10 10:43:05;;;;;;;26.95;7.05;;;3.70;99.90;;;;;;4953433;28;20077;-90
2023/01/10 10:45:40;;;;;;;38.35;5.60;;;3.70;99.90;;;;;;4953443;29;20070;-90
2023/01/10 10:48:17;;;;;;;20.42;6.30;;;3.70;99.90;;;;;;4952940;29;20126;-91
2023/01/10 10:51:00;;;;;;;16.85;5.65;;;3.60;99.90;;;;;;4969386;28;20035;-91
2023/01/10 10:53:27;;;;;;;22.25;5.65;;;3.60;99.90;;;;;;4968866;28;20093;-90
2023/01/10 10:55:53;;;;;;;22.83;4.72;;;3.50;99.90;;;;;;4953009;29;20089;-90
2023/01/10 10:58:19;;;;;;;36.53;7.22;;;3.50;99.90;;;;;;4952644;28;20031;-90
2023/01/10 11:00:46;;;;;;;29.95;6.10;;;3.50;99.90;;;;;;5036782;28;20034;-91
2023/01/10 11:03:24;;;;;;;39.15;7.35;;;3.40;99.90;;;;;;5036672;28;20054;-91
2023/01/10 11:05:50;;;;;;;25.77;6.32;;;3.40;99.90;;;;;;4952725;29;20035;-89
2023/01/10 11:08:18;;;;;;;27.58;6.18;;;3.30;99.90;;;;;;4952933;28;20093;-89
2023/01/10 11:10:52;;;;;;;29.20;6.55;;;3.30;99.90;;;;;;5036679;28;20070;-89
2023/01/10 11:13:38;;;;;;;28.52;7.40;;;3.30;99.90;;;;;;4952386;29;20039;-89
2023/01/10 11:16:05;;;;;;;32.45;7.50;;;3.40;99.90;;;;;;4953852;29;20054;-90
2023/01/10 11:18:32;;;;;;;32.25;8.77;;;3.40;99.90;;;;;;4952407;28;20038;-90
2023/01/10 11:21:07;;;;;;;37.78;8.82;;;3.40;99.90;;;;;;4953085;28;20042;-90
2023/01/10 11:23:39;;;;;;;32.85;8.10;;;3.40;99.90;;;;;;4953056;29;20035;-89
2023/01/10 11:26:26;;;;;;;31.88;8.10;;;3.40;99.90;;;;;;4968579;28;20069;-90
2023/01/10 11:29:05;;;;;;;33.30;7.72;;;3.40;99.90;;;;;;4952375;28;20027;-90
2023/01/10 11:31:31;;;;;;;30.25;7.25;;;3.50;99.90;;;;;;4952499;29;20043;-90
2023/01/10 11:33:58;;;;;;;28.40;7.50;;;3.40;99.90;;;;;;4952376;29;20051;-89
2023/01/10 11:36:24;;;;;;;46.38;10.20;;;3.40;99.90;;;;;;4953397;28;20110;-90
2023/01/10 11:39:01;;;;;;;36.70;7.45;;;3.40;99.90;;;;;;5036777;28;20035;-89
2023/01/10 11:41:30;;;;;;;34.15;8.35;;;3.40;99.90;;;;;;4952389;29;20533;-90
2023/01/10 11:44:16;;;;;;;32.20;8.63;;;3.40;99.90;;;;;;4952444;29;20038;-91
2023/01/10 11:46:44;;;;;;;38.25;8.13;;;3.30;99.90;;;;;;4952102;29;20452;-89
2023/01/10 11:49:18;;;;;;;42.17;9.80;;;3.40;99.90;;;;;;4955102;28;20395;-90
2023/01/10 11:51:47;;;;;;;35.50;8.10;;;3.30;99.90;;;;;;4955414;29;20220;-90
2023/01/10 11:54:27;;;;;;;40.20;8.90;;;3.30;99.90;;;;;;4955451;29;20454;-90
2023/01/10 11:57:08;;;;;;;48.28;9.77;;;3.30;99.90;;;;;;4955729;28;20122;-90
2023/01/10 11:59:34;;;;;;;27.08;8.38;;;3.40;99.90;;;;;;4955353;29;20094;-91
2023/01/10 12:02:18;;;;;;;35.92;8.82;;;3.40;99.90;;;;;;4971343;28;20479;-89
2023/01/10 12:04:47;;;;;;;35.10;8.10;;;3.50;99.90;;;;;;4955259;29;20447;-90
2023/01/10 12:07:13;;;;;;;47.70;8.43;;;3.60;99.90;;;;;;4955658;29;20089;-90
2023/01/10 12:09:52;;;;;;;45.60;8.23;;;3.70;99.90;;;;;;5039927;28;20035;-89
2023/01/10 12:12:27;;;;;;;37.58;6.88;;;3.80;99.90;;;;;;4955008;29;20039;-89
2023/01/10 12:15:25;;;;;;;27.45;6.30;;;3.70;99.90;;;;;;5039694;28;20031;-89
2023/01/10 12:17:55;;;;;;;40.58;7.63;;;3.50;99.90;;;;;;4955034;28;20122;-89
2023/01/10 12:20:21;;;;;;;25.83;5.95;;;3.50;99.90;;;;;;4955008;29;20024;-90
2023/01/10 12:22:53;;;;;;;28.67;6.65;;;3.50;99.90;;;;;;5039263;28;20027;-90
2023/01/10 12:25:40;;;;;;;38.72;7.20;;;3.60;99.90;;;;;;4954797;28;20035;-90
2023/01/10 12:28:20;;;;;;;33.38;6.80;;;3.80;99.90;;;;;;4955014;29;20035;-90
2023/01/10 12:30:51;;;;;;;37.42;7.20;;;4.00;99.90;;;;;;4954725;29;20089;-89
2023/01/10 12:33:35;;;;;;;21.90;6.50;;;4.10;99.90;;;;;;4955073;29;20085;-89
2023/01/10 12:36:24;;;;;;;30.65;6.95;;;4.20;99.90;;;;;;4954594;29;20035;-89
2023/01/10 12:39:04;;;;;;;29.48;5.63;;;4.30;99.90;;;;;;4970957;28;20031;-90
2023/01/10 12:44:43;;;;;;;55.00;13.90;;;4.30;99.90;;;;;;4970880;28;20043;-89
2023/01/10 12:47:16;;;;;;;57.40;13.00;;;4.10;99.90;;;;;;4954693;28;20031;-91
2023/01/10 12:49:51;;;;;;;33.50;8.88;;;4.10;99.90;;;;;;4970707;28;20024;-90
2023/01/10 12:52:41;;;;;;;33.15;6.15;;;4.00;99.90;;;;;;4954469;29;20039;-90
2023/01/10 12:59:03;;;;;;;31.33;8.35;;;4.20;99.90;;;;;;4956156;28;20035;-90
2023/01/10 13:01:39;;;;;;;31.90;8.02;;;4.20;99.90;;;;;;4954026;29;20027;-90
2023/01/10 13:04:09;;;;;;;30.90;5.65;;;4.10;99.90;;;;;;4954918;28;20039;-90
2023/01/10 13:06:41;;;;;;;29.55;7.07;;;4.10;99.90;;;;;;4954509;29;20489;-91
2023/01/10 13:09:19;;;;;;;26.35;8.25;;;4.10;99.90;;;;;;4954710;29;20027;-89
2023/01/10 13:11:57;;;;;;;32.55;6.25;;;4.10;99.90;;;;;;4954369;29;20038;-89
2023/01/10 13:14:40;;;;;;;27.42;5.07;;;4.00;99.90;;;;;;4970487;28;20122;-89
2023/01/10 13:17:36;;;;;;;26.13;5.28;;;4.10;99.90;;;;;;4954164;29;20035;-89
2023/01/10 13:20:20;;;;;;;30.77;5.57;;;4.10;99.90;;;;;;4954161;28;20031;-91